Time;durP1;ratioP1;P1;durP2;ratioP2;P2;SDS_P1;SDS_P2;PMS_P1;PMS_P2;Temp;Humidity;BMP_temperature;BMP_pressure;BME280_temperature;BME280_humidity;BME280_pressure;Samples;Min_cycle;Max_cycle;Signal;HPM_P1;HPM_P2
2023/01/24 00:01:12;;;;;;;;;;;153.80;2252.80;;;;;;5018853;28;19937;-74
2023/01/24 00:03:37;;;;;;;;;;;153.80;2252.80;;;;;;5037814;28;20893;-74
2023/01/24 00:06:03;;;;;;;;;;;153.90;2252.80;;;;;;5040094;28;19960;-76
2023/01/24 00:08:29;;;;;;;;;;;153.90;2252.80;;;;;;5036945;28;19952;-74
2023/01/24 00:10:59;;;;;;;;;;;153.90;2252.80;;;;;;5038809;28;19905;-74
2023/01/24 00:13:24;;;;;;;;;;;153.90;2252.80;;;;;;5035668;28;19955;-74
2023/01/24 00:15:50;;;;;;;;;;;153.80;2252.80;;;;;;5018999;28;19940;-74
2023/01/24 00:18:15;;;;;;;;;;;153.80;2252.80;;;;;;5018462;28;19905;-75
2023/01/24 00:20:41;;;;;;;;;;;153.80;2252.80;;;;;;5035502;28;19959;-74
2023/01/24 00:23:07;;;;;;;;;;;153.80;2252.80;;;;;;5035578;28;19905;-74
2023/01/24 00:25:32;;;;;;;;;;;153.80;2252.80;;;;;;5033287;28;20373;-75
2023/01/24 00:27:58;;;;;;;;;;;153.70;2252.80;;;;;;5035583;28;19908;-75
2023/01/24 00:30:24;;;;;;;;;;;153.70;2252.80;;;;;;5018358;28;19913;-74
2023/01/24 00:32:49;;;;;;;;;;;153.60;2252.80;;;;;;5017813;28;20362;-74
2023/01/24 00:35:15;;;;;;;;;;;153.60;2252.80;;;;;;5035492;28;19947;-74
2023/01/24 00:37:40;;;;;;;;;;;153.60;2252.80;;;;;;5017796;28;20458;-75
2023/01/24 00:40:07;;;;;;;;;;;153.60;2252.80;;;;;;5035236;28;19928;-75
2023/01/24 00:42:32;;;;;;;;;;;128.90;2252.80;;;;;;5018076;28;19909;-74
2023/01/24 00:44:58;;;;;;;;;;;153.60;2252.80;;;;;;5009619;28;19906;-74
2023/01/24 00:47:24;;;;;;;;;;;153.60;2252.80;;;;;;5018144;28;19913;-74
2023/01/24 00:49:50;;;;;;;;;;;153.60;2252.80;;;;;;5017485;28;19932;-74
2023/01/24 00:52:15;;;;;;;;;;;153.60;2252.80;;;;;;5035061;28;19905;-74
2023/01/24 00:54:41;;;;;;;;;;;128.90;2252.80;;;;;;5018016;28;19916;-74
2023/01/24 00:57:06;;;;;;;;;;;128.90;2252.80;;;;;;5035165;28;19967;-74
2023/01/24 00:59:32;;;;;;;;;;;128.90;2252.80;;;;;;5026607;28;20287;-74
2023/01/24 01:01:57;;;;;;;;;;;128.90;2252.80;;;;;;5007003;28;19912;-74
2023/01/24 01:04:23;;;;;;;;;;;128.90;2252.80;;;;;;5025195;28;19944;-74
2023/01/24 01:06:48;;;;;;;;;;;128.90;2252.80;;;;;;5025942;28;19906;-75
2023/01/24 01:09:14;;;;;;;;;;;128.90;2252.80;;;;;;5023806;28;19913;-74
2023/01/24 01:11:41;;;;;;;;;;;128.90;2252.80;;;;;;5025870;28;19950;-73
2023/01/24 01:14:07;;;;;;;;;;;128.90;2252.80;;;;;;5024818;28;19906;-74
2023/01/24 01:16:37;;;;;;;;;;;128.90;2252.80;;;;;;5005847;28;19909;-75
2023/01/24 01:19:03;;;;;;;;;;;128.90;2252.80;;;;;;5025178;28;19905;-75
2023/01/24 01:21:29;;;;;;;;;;;128.90;2252.80;;;;;;5025307;28;19921;-74
2023/01/24 01:23:54;;;;;;;;;;;128.90;2252.80;;;;;;5023800;28;19905;-73
2023/01/24 01:26:21;;;;;;;;;;;128.90;2252.80;;;;;;5007864;28;19905;-74
2023/01/24 01:28:47;;;;;;;;;;;128.90;2252.80;;;;;;5025957;28;19916;-75
2023/01/24 01:31:12;;;;;;;;;;;128.90;2252.80;;;;;;5025458;28;19909;-74
2023/01/24 01:33:38;;;;;;;;;;;128.80;2252.80;;;;;;5023726;28;19952;-77
2023/01/24 01:36:04;;;;;;;;;;;128.80;2252.80;;;;;;5007270;28;19916;-74
2023/01/24 01:38:29;;;;;;;;;;;128.80;2252.80;;;;;;5015314;28;19905;-74
2023/01/24 01:40:55;;;;;;;;;;;128.80;2252.80;;;;;;5007722;28;19912;-73
2023/01/24 01:43:22;;;;;;;;;;;128.80;2252.80;;;;;;5023487;28;19912;-74
2023/01/24 01:45:49;;;;;;;;;;;128.70;2252.80;;;;;;5024735;28;19905;-76
2023/01/24 01:48:23;;;;;;;;;;;128.60;2252.80;;;;;;5023451;28;19932;-74
2023/01/24 01:51:21;;;;;;;;;;;128.60;2252.80;;;;;;5023885;28;20355;-75
2023/01/24 01:53:49;;;;;;;;;;;128.70;2252.80;;;;;;4930374;29;19907;-74
2023/01/24 01:56:25;;;;;;;;;;;128.70;2252.80;;;;;;4943989;29;20070;-74
2023/01/24 01:58:51;;;;;;;;;;;128.60;2252.80;;;;;;4949938;28;19918;-74
2023/01/24 02:01:16;;;;;;;;;;;128.60;2252.80;;;;;;4963067;28;19906;-74
2023/01/24 02:03:49;;;;;;;;;;;128.60;2252.80;;;;;;4964715;28;19906;-75
2023/01/24 02:06:37;;;;;;;;;;;128.60;2252.80;;;;;;4956039;28;20400;-74
2023/01/24 02:09:04;;;;;;;;;;;128.60;2252.80;;;;;;4965336;28;20025;-74
2023/01/24 02:11:39;;;;;;;;;;;128.50;2252.80;;;;;;4947361;28;19961;-75
2023/01/24 02:16:53;;;;;;;;;;;128.50;2252.80;;;;;;4953983;29;19957;-77
2023/01/24 02:19:38;;;;;;;;;;;128.50;2252.80;;;;;;4937598;29;19910;-74
2023/01/24 02:22:09;;;;;;;;;;;128.50;2252.80;;;;;;4953569;29;19907;-74
2023/01/24 02:24:40;;;;;;;;;;;128.50;2252.80;;;;;;4953575;29;19906;-74
2023/01/24 02:27:06;;;;;;;;;;;128.60;2252.80;;;;;;4953325;28;19993;-74
2023/01/24 02:29:31;;;;;;;;;;;128.60;2252.80;;;;;;4987592;28;20012;-77
2023/01/24 02:32:01;;;;;;;;;;;128.60;2252.80;;;;;;4996214;28;19948;-76
2023/01/24 02:34:27;;;;;;;;;;;128.60;2252.80;;;;;;5013901;28;19936;-74
2023/01/24 02:37:04;;;;;;;;;;;128.60;2252.80;;;;;;5013823;28;19905;-75
2023/01/24 02:39:32;;;;;;;;;;;128.60;2252.80;;;;;;5014141;28;20004;-78
2023/01/24 02:42:05;;;;;;;;;;;128.60;2252.80;;;;;;5013737;28;19912;-74
2023/01/24 02:44:30;;;;;;;;;;;128.40;2252.80;;;;;;5013633;28;19960;-77
2023/01/24 02:46:56;;;;;;;;;;;128.50;2252.80;;;;;;5003771;28;20301;-75
2023/01/24 02:49:21;;;;;;;;;;;128.40;2252.80;;;;;;5032296;28;20366;-75
2023/01/24 02:54:31;;;;;;;;;;;128.40;2252.80;;;;;;5030954;28;19911;-77
2023/01/24 02:59:41;;;;;;;;;;;128.50;2252.80;;;;;;5031897;28;19924;-74
2023/01/24 03:02:06;;;;;;;;;;;128.50;2252.80;;;;;;5032290;28;19905;-76
2023/01/24 03:04:32;;;;;;;;;;;128.50;2252.80;;;;;;5032459;28;19951;-77
2023/01/24 03:06:58;;;;;;;;;;;128.50;2252.80;;;;;;5032267;28;19909;-74
2023/01/24 03:09:33;;;;;;;;;;;128.50;2252.80;;;;;;5032226;28;19917;-75
2023/01/24 03:36:41;;;;;;;;;;;128.50;2252.80;;;;;;5031401;28;19952;-75
2023/01/24 03:41:50;;;;;;;;;;;128.50;2252.80;;;;;;5036476;28;19951;-77
2023/01/24 03:44:16;;;;;;;;;;;128.60;2252.80;;;;;;5017974;28;19905;-75
2023/01/24 03:46:41;;;;;;;;;;;128.60;2252.80;;;;;;5035739;28;19996;-75
2023/01/24 03:49:07;;;;;;;;;;;128.60;2252.80;;;;;;5035787;28;19966;-75
2023/01/24 03:54:17;;;;;;;;;;;128.40;2252.80;;;;;;5034130;28;19932;-76
2023/01/24 03:56:43;;;;;;;;;;;128.50;2252.80;;;;;;5035785;28;19909;-76
2023/01/24 03:59:08;;;;;;;;;;;128.30;2252.80;;;;;;5035651;28;19940;-75
2023/01/24 04:01:34;;;;;;;;;;;128.30;2252.80;;;;;;5035830;28;20011;-76
2023/01/24 04:03:59;;;;;;;;;;;128.40;2252.80;;;;;;5036708;28;20381;-75
2023/01/24 04:06:25;;;;;;;;;;;128.30;2252.80;;;;;;5036710;28;19974;-74
2023/01/24 04:08:51;;;;;;;;;;;128.20;2252.80;;;;;;5036802;28;19921;-75
2023/01/24 04:11:16;;;;;;;;;;;128.20;2252.80;;;;;;5019093;28;19911;-76
2023/01/24 04:13:42;;;;;;;;;;;128.20;2252.80;;;;;;5036409;28;19905;-74
2023/01/24 04:16:08;;;;;;;;;;;128.20;2252.80;;;;;;5036504;28;19992;-75
2023/01/24 04:18:36;;;;;;;;;;;128.20;2252.80;;;;;;5036403;28;19952;-76
2023/01/24 04:21:02;;;;;;;;;;;128.10;2252.80;;;;;;5036369;28;19913;-77
2023/01/24 04:23:28;;;;;;;;;;;128.20;2252.80;;;;;;5036428;28;20268;-74
2023/01/24 04:25:59;;;;;;;;;;;128.20;2252.80;;;;;;5033812;28;20068;-76
2023/01/24 04:28:25;;;;;;;;;;;128.30;2252.80;;;;;;5018413;28;19963;-75
2023/01/24 04:30:58;;;;;;;;;;;128.30;2252.80;;;;;;5018624;28;20355;-74
2023/01/24 04:33:23;;;;;;;;;;;128.20;2252.80;;;;;;5018405;28;19912;-74
2023/01/24 04:35:49;;;;;;;;;;;128.20;2252.80;;;;;;5036386;28;20306;-74
2023/01/24 04:38:14;;;;;;;;;;;128.10;2252.80;;;;;;5036145;28;19913;-75
2023/01/24 04:40:40;;;;;;;;;;;128.10;2252.80;;;;;;5036146;28;19905;-74
2023/01/24 04:43:06;;;;;;;;;;;128.10;2252.80;;;;;;5036031;28;19995;-74
2023/01/24 04:45:31;;;;;;;;;;;128.10;2252.80;;;;;;5018244;28;20271;-74
2023/01/24 04:47:57;;;;;;;;;;;128.20;2252.80;;;;;;5035729;28;19912;-74
2023/01/24 04:50:23;;;;;;;;;;;128.10;2252.80;;;;;;5034497;28;19921;-74
2023/01/24 04:52:48;;;;;;;;;;;128.00;2252.80;;;;;;5035787;28;20373;-74
2023/01/24 04:55:14;;;;;;;;;;;128.00;2252.80;;;;;;5035925;28;19932;-76
2023/01/24 04:57:39;;;;;;;;;;;128.00;2252.80;;;;;;5020525;28;19905;-77
2023/01/24 05:00:07;;;;;;;;;;;128.00;2252.80;;;;;;5055791;28;19909;-75
2023/01/24 05:02:33;;;;;;;;;;;128.10;2252.80;;;;;;5055372;28;19908;-76
2023/01/24 05:04:59;;;;;;;;;;;128.10;2252.80;;;;;;5055680;28;20358;-77
2023/01/24 05:07:24;;;;;;;;;;;128.10;2252.80;;;;;;5037386;28;19955;-75
2023/01/24 05:09:50;;;;;;;;;;;128.20;2252.80;;;;;;5037795;28;19912;-78
2023/01/24 05:12:15;;;;;;;;;;;128.20;2252.80;;;;;;5055471;28;19991;-74
2023/01/24 05:14:41;;;;;;;;;;;128.20;2252.80;;;;;;5055554;28;19909;-77
2023/01/24 05:17:06;;;;;;;;;;;128.20;2252.80;;;;;;5054553;28;19948;-75
2023/01/24 05:19:32;;;;;;;;;;;128.30;2252.80;;;;;;5036155;28;20420;-74
2023/01/24 05:21:57;;;;;;;;;;;128.30;2252.80;;;;;;5036063;28;19905;-75
2023/01/24 05:24:23;;;;;;;;;;;128.30;2252.80;;;;;;5035906;28;19905;-74
2023/01/24 05:26:49;;;;;;;;;;;128.30;2252.80;;;;;;5054182;28;19905;-75
2023/01/24 05:29:14;;;;;;;;;;;128.40;2252.80;;;;;;5054108;28;19920;-74
2023/01/24 05:31:40;;;;;;;;;;;128.40;2252.80;;;;;;5053771;28;19944;-75
2023/01/24 05:34:05;;;;;;;;;;;128.40;2252.80;;;;;;5052152;28;19912;-74
2023/01/24 05:36:31;;;;;;;;;;;128.50;2252.80;;;;;;5054325;28;19919;-74
2023/01/24 05:38:56;;;;;;;;;;;128.50;2252.80;;;;;;5036662;28;19916;-74
2023/01/24 05:41:22;;;;;;;;;;;128.50;2252.80;;;;;;5036145;28;19912;-74
2023/01/24 05:43:48;;;;;;;;;;;128.60;2252.80;;;;;;5054152;28;19915;-75
2023/01/24 05:46:21;;;;;;;;;;;128.60;2252.80;;;;;;5036030;28;19912;-75
2023/01/24 05:48:47;;;;;;;;;;;128.60;2252.80;;;;;;5035662;28;19918;-74
2023/01/24 05:51:14;;;;;;;;;;;128.70;2252.80;;;;;;5054206;28;19912;-74
2023/01/24 05:53:40;;;;;;;;;;;128.80;2252.80;;;;;;5054006;28;19911;-74
2023/01/24 05:56:07;;;;;;;;;;;128.70;2252.80;;;;;;5035975;28;19952;-75
2023/01/24 05:58:34;;;;;;;;;;;128.80;2252.80;;;;;;5053826;28;19952;-78
2023/01/24 06:01:00;;;;;;;;;;;128.90;2252.80;;;;;;5053376;28;19911;-74
2023/01/24 06:03:25;;;;;;;;;;;128.80;2252.80;;;;;;5053857;28;19905;-74
2023/01/24 06:05:52;;;;;;;;;;;128.70;2252.80;;;;;;5053775;28;19911;-75
2023/01/24 06:08:18;;;;;;;;;;;128.60;2252.80;;;;;;5052095;28;19911;-76
2023/01/24 06:10:43;;;;;;;;;;;128.50;2252.80;;;;;;5053661;28;19955;-76
2023/01/24 06:13:09;;;;;;;;;;;128.60;2252.80;;;;;;5053535;28;20420;-75
2023/01/24 06:15:35;;;;;;;;;;;128.40;2252.80;;;;;;5035277;28;19930;-74
2023/01/24 06:18:01;;;;;;;;;;;128.50;2252.80;;;;;;5053252;28;19904;-75
2023/01/24 06:20:27;;;;;;;;;;;128.50;2252.80;;;;;;5053463;28;19965;-74
2023/01/24 06:22:59;;;;;;;;;;;128.60;2252.80;;;;;;5053493;28;20297;-74
2023/01/24 06:25:24;;;;;;;;;;;128.60;2252.80;;;;;;5053480;28;19908;-76
2023/01/24 06:27:50;;;;;;;;;;;128.70;2252.80;;;;;;5035710;28;20248;-73
2023/01/24 06:30:17;;;;;;;;;;;128.60;2252.80;;;;;;5053199;28;20378;-75
2023/01/24 06:33:02;;;;;;;;;;;128.60;2252.80;;;;;;5052582;28;20366;-74
2023/01/24 06:35:28;;;;;;;;;;;128.60;2252.80;;;;;;5052051;28;19912;-75
2023/01/24 06:37:54;;;;;;;;;;;128.60;2252.80;;;;;;5052789;28;19908;-74
2023/01/24 06:40:22;;;;;;;;;;;128.50;2252.80;;;;;;5052902;28;19912;-74
2023/01/24 06:42:48;;;;;;;;;;;128.40;2252.80;;;;;;5053160;28;19904;-74
2023/01/24 06:45:14;;;;;;;;;;;128.40;2252.80;;;;;;5035209;28;19916;-75
2023/01/24 06:47:40;;;;;;;;;;;128.30;2252.80;;;;;;5035087;28;19909;-77
2023/01/24 06:50:07;;;;;;;;;;;128.40;2252.80;;;;;;5052896;28;20006;-76
2023/01/24 06:52:33;;;;;;;;;;;128.40;2252.80;;;;;;5053555;28;20251;-75
2023/01/24 06:54:59;;;;;;;;;;;128.50;2252.80;;;;;;5034791;28;19958;-76
2023/01/24 06:57:24;;;;;;;;;;;128.60;2252.80;;;;;;5031448;28;20358;-73
2023/01/24 06:59:50;;;;;;;;;;;128.60;2252.80;;;;;;5053079;28;19920;-74
2023/01/24 07:02:15;;;;;;;;;;;128.60;2252.80;;;;;;5052961;28;19909;-73
2023/01/24 07:04:42;;;;;;;;;;;128.60;2252.80;;;;;;5052916;28;20971;-74
2023/01/24 07:07:08;;;;;;;;;;;128.60;2252.80;;;;;;5035108;28;19904;-74
2023/01/24 07:09:33;;;;;;;;;;;128.60;2252.80;;;;;;5034789;28;20286;-75
2023/01/24 07:11:59;;;;;;;;;;;128.60;2252.80;;;;;;5034382;28;19905;-75
2023/01/24 07:14:25;;;;;;;;;;;128.60;2252.80;;;;;;5053232;28;19944;-78
2023/01/24 07:16:51;;;;;;;;;;;128.30;2252.80;;;;;;5052790;28;19940;-77
2023/01/24 07:19:18;;;;;;;;;;;128.60;2252.80;;;;;;5052755;28;19911;-78
2023/01/24 07:21:44;;;;;;;;;;;128.70;2252.80;;;;;;5034781;28;20583;-75
2023/01/24 07:24:13;;;;;;;;;;;128.80;2252.80;;;;;;5052801;28;19905;-75
2023/01/24 07:26:38;;;;;;;;;;;128.70;2252.80;;;;;;5052644;28;19904;-75
2023/01/24 07:29:04;;;;;;;;;;;128.80;2252.80;;;;;;5034690;28;19916;-74
2023/01/24 07:31:29;;;;;;;;;;;128.90;2252.80;;;;;;5052912;28;19928;-78
2023/01/24 07:33:55;;;;;;;;;;;128.90;2252.80;;;;;;5034521;28;19904;-75
2023/01/24 07:36:21;;;;;;;;;;;128.80;2252.80;;;;;;5034809;28;20355;-75
2023/01/24 07:38:46;;;;;;;;;;;128.80;2252.80;;;;;;5052602;28;20291;-75
2023/01/24 07:41:12;;;;;;;;;;;128.80;2252.80;;;;;;5053211;28;19932;-75
2023/01/24 07:43:37;;;;;;;;;;;128.90;2252.80;;;;;;5034736;28;19915;-75
2023/01/24 07:46:03;;;;;;;;;;;128.80;2252.80;;;;;;5034549;28;19913;-77
2023/01/24 07:48:29;;;;;;;;;;;128.80;2252.80;;;;;;5034158;28;19908;-75
2023/01/24 07:50:59;;;;;;;;;;;128.80;2252.80;;;;;;5052206;28;19920;-75
2023/01/24 07:53:25;;;;;;;;;;;128.80;2252.80;;;;;;5052762;28;20250;-74
2023/01/24 07:55:50;;;;;;;;;;;128.90;2252.80;;;;;;5052255;28;19912;-75
2023/01/24 07:58:16;;;;;;;;;;;128.90;2252.80;;;;;;5052545;28;19919;-75
2023/01/24 08:00:44;;;;;;;;;;;128.90;2252.80;;;;;;5052482;28;20370;-75
2023/01/24 08:03:09;;;;;;;;;;;128.90;2252.80;;;;;;5052190;28;19905;-76
2023/01/24 08:05:38;;;;;;;;;;;128.90;2252.80;;;;;;5033850;28;19904;-74
2023/01/24 08:08:04;;;;;;;;;;;128.90;2252.80;;;;;;5052271;28;19932;-74
2023/01/24 08:10:29;;;;;;;;;;;153.60;2252.80;;;;;;5052024;28;20362;-74
2023/01/24 08:12:55;;;;;;;;;;;153.70;2252.80;;;;;;5052715;28;19951;-75
2023/01/24 08:15:20;;;;;;;;;;;153.60;2252.80;;;;;;5052429;28;19912;-76
2023/01/24 08:17:46;;;;;;;;;;;128.90;2252.80;;;;;;5034300;28;19912;-74
2023/01/24 08:20:12;;;;;;;;;;;128.90;2252.80;;;;;;5051996;28;19905;-74
2023/01/24 08:22:41;;;;;;;;;;;128.80;2252.80;;;;;;5052337;28;19917;-75
2023/01/24 08:25:07;;;;;;;;;;;128.90;2252.80;;;;;;5055156;28;19938;-74
2023/01/24 08:27:32;;;;;;;;;;;128.80;2252.80;;;;;;5055873;28;19904;-75
2023/01/24 08:29:58;;;;;;;;;;;128.70;2252.80;;;;;;5055521;28;19912;-75
2023/01/24 08:32:24;;;;;;;;;;;128.70;2252.80;;;;;;5037720;28;19915;-76
2023/01/24 08:34:49;;;;;;;;;;;128.70;2252.80;;;;;;5055906;28;19909;-75
2023/01/24 08:37:15;;;;;;;;;;;128.70;2252.80;;;;;;5055588;28;20337;-75
2023/01/24 08:39:41;;;;;;;;;;;128.70;2252.80;;;;;;5037727;28;19992;-76
2023/01/24 08:42:07;;;;;;;;;;;128.80;2252.80;;;;;;5037457;28;19905;-76
2023/01/24 08:44:32;;;;;;;;;;;128.70;2252.80;;;;;;5038118;28;19995;-74
2023/01/24 08:46:58;;;;;;;;;;;128.70;2252.80;;;;;;5055387;28;20393;-74
2023/01/24 08:49:23;;;;;;;;;;;128.80;2252.80;;;;;;5055059;28;19916;-73
2023/01/24 08:51:50;;;;;;;;;;;128.80;2252.80;;;;;;5051001;28;20019;-75
2023/01/24 08:54:15;;;;;;;;;;;128.90;2252.80;;;;;;5055255;28;20259;-74
2023/01/24 08:56:41;;;;;;;;;;;128.90;2252.80;;;;;;5055296;28;19912;-74
2023/01/24 08:59:07;;;;;;;;;;;128.80;2252.80;;;;;;5054950;28;19939;-77
2023/01/24 09:01:33;;;;;;;;;;;128.90;2252.80;;;;;;5036873;28;19950;-76
2023/01/24 09:03:59;;;;;;;;;;;128.90;2252.80;;;;;;5032964;28;19904;-74
2023/01/24 09:06:25;;;;;;;;;;;128.90;2252.80;;;;;;5055023;28;19909;-75
2023/01/24 09:08:54;;;;;;;;;;;153.60;2252.80;;;;;;5054609;28;20008;-75
2023/01/24 09:11:20;;;;;;;;;;;128.90;2252.80;;;;;;5055008;28;19999;-74
2023/01/24 09:13:46;;;;;;;;;;;128.90;2252.80;;;;;;5054535;28;20384;-75
2023/01/24 09:16:11;;;;;;;;;;;128.90;2252.80;;;;;;5054973;28;19905;-73
2023/01/24 09:18:37;;;;;;;;;;;128.70;2252.80;;;;;;5036548;28;19979;-74
2023/01/24 09:21:03;;;;;;;;;;;128.70;2252.80;;;;;;5054659;28;19909;-73
2023/01/24 09:23:29;;;;;;;;;;;128.60;2252.80;;;;;;5054760;28;19959;-75
2023/01/24 09:25:54;;;;;;;;;;;128.60;2252.80;;;;;;5054516;28;19936;-76
2023/01/24 09:28:20;;;;;;;;;;;128.60;2252.80;;;;;;5036792;28;19904;-75
2023/01/24 09:30:47;;;;;;;;;;;128.50;2252.80;;;;;;5037368;28;20053;-76
2023/01/24 09:33:13;;;;;;;;;;;128.70;2252.80;;;;;;5036772;28;20342;-75
2023/01/24 09:35:39;;;;;;;;;;;128.60;2252.80;;;;;;5054013;28;20259;-74
2023/01/24 09:38:05;;;;;;;;;;;128.70;2252.80;;;;;;5054239;28;19904;-74
2023/01/24 09:40:40;;;;;;;;;;;128.70;2252.80;;;;;;5036386;28;19952;-74
2023/01/24 09:43:29;;;;;;;;;;;128.70;2252.80;;;;;;5043980;28;19908;-76
2023/01/24 09:46:05;;;;;;;;;;;128.70;2252.80;;;;;;4954215;29;19910;-75
2023/01/24 09:48:33;;;;;;;;;;;128.80;2252.80;;;;;;4954078;29;20485;-74
2023/01/24 09:51:01;;;;;;;;;;;128.90;2252.80;;;;;;4937569;29;19921;-73
2023/01/24 09:53:30;;;;;;;;;;;128.90;2252.80;;;;;;4953993;29;20057;-74
2023/01/24 09:55:57;;;;;;;;;;;128.90;2252.80;;;;;;4937875;28;20049;-76
2023/01/24 09:58:26;;;;;;;;;;;128.90;2252.80;;;;;;4954353;28;19921;-75
2023/01/24 10:00:52;;;;;;;;;;;153.60;2252.80;;;;;;4938168;29;19910;-76
2023/01/24 10:03:21;;;;;;;;;;;128.90;2252.80;;;;;;4937341;29;20519;-76
2023/01/24 10:05:54;;;;;;;;;;;128.90;2252.80;;;;;;4937714;29;19907;-75
2023/01/24 10:08:31;;;;;;;;;;;153.60;2252.80;;;;;;4953695;28;20383;-75
2023/01/24 10:11:02;;;;;;;;;;;153.70;2252.80;;;;;;4937592;29;20472;-75
2023/01/24 10:13:27;;;;;;;;;;;153.60;2252.80;;;;;;4953942;28;20021;-75
2023/01/24 10:16:02;;;;;;;;;;;128.90;2252.80;;;;;;4953836;29;20364;-75
2023/01/24 10:18:47;;;;;;;;;;;128.90;2252.80;;;;;;4937709;29;19907;-75
2023/01/24 10:21:24;;;;;;;;;;;128.90;2252.80;;;;;;4937162;29;19910;-75
2023/01/24 10:23:52;;;;;;;;;;;128.90;2252.80;;;;;;5019151;28;19983;-74
2023/01/24 10:26:27;;;;;;;;;;;128.90;2252.80;;;;;;5053661;28;19905;-80
2023/01/24 10:28:54;;;;;;;;;;;128.90;2252.80;;;;;;5027553;28;19909;-76
2023/01/24 10:31:25;;;;;;;;;;;128.80;2252.80;;;;;;5037771;28;19959;-77
2023/01/24 10:33:53;;;;;;;;;;;128.80;2252.80;;;;;;5042598;28;19995;-76
2023/01/24 10:36:24;;;;;;;;;;;128.80;2252.80;;;;;;5034498;28;20346;-76
2023/01/24 10:38:49;;;;;;;;;;;128.80;2252.80;;;;;;5053565;28;19909;-76
2023/01/24 10:41:16;;;;;;;;;;;128.80;2252.80;;;;;;5035725;28;19951;-78
2023/01/24 10:43:44;;;;;;;;;;;128.90;2252.80;;;;;;5036063;28;19912;-79
2023/01/24 10:46:19;;;;;;;;;;;128.90;2252.80;;;;;;5036632;28;19946;-81
2023/01/24 10:48:45;;;;;;;;;;;153.60;2252.80;;;;;;5054103;28;19913;-79
2023/01/24 10:51:22;;;;;;;;;;;153.70;2252.80;;;;;;5035434;28;19962;-81
2023/01/24 10:53:48;;;;;;;;;;;153.60;2252.80;;;;;;5040684;28;19908;-79
2023/01/24 10:56:14;;;;;;;;;;;153.60;2252.80;;;;;;5053458;28;19905;-83
2023/01/24 10:58:41;;;;;;;;;;;153.70;2252.80;;;;;;5035657;28;19917;-77
2023/01/24 11:01:18;;;;;;;;;;;153.80;2252.80;;;;;;5045982;28;20015;-79
2023/01/24 11:03:44;;;;;;;;;;;153.80;2252.80;;;;;;5042870;28;19995;-78
2023/01/24 11:06:31;;;;;;;;;;;153.80;2252.80;;;;;;5035163;28;19905;-78
2023/01/24 11:09:08;;;;;;;;;;;153.90;2252.80;;;;;;5035510;28;19912;-81
2023/01/24 11:11:34;;;;;;;;;;;153.80;2252.80;;;;;;5035026;28;19905;-78
2023/01/24 11:14:00;;;;;;;;;;;153.70;2252.80;;;;;;5035772;28;19911;-79
2023/01/24 11:16:55;;;;;;;;;;;153.80;2252.80;;;;;;5035711;28;19955;-79
2023/01/24 11:19:26;;;;;;;;;;;153.80;2252.80;;;;;;4972666;28;20360;-79
2023/01/24 11:21:54;;;;;;;;;;;153.90;2252.80;;;;;;4969188;28;19917;-79
2023/01/24 11:24:21;;;;;;;;;;;153.80;2252.80;;;;;;4957071;28;19953;-80
2023/01/24 11:26:52;;;;;;;;;;;153.80;2252.80;;;;;;4960249;28;20405;-80
2023/01/24 11:29:18;;;;;;;;;;;153.80;2252.80;;;;;;4956941;28;19914;-79
2023/01/24 11:31:48;;;;;;;;;;;153.70;2252.80;;;;;;4957642;28;20163;-80
2023/01/24 11:34:24;;;;;;;;;;;153.80;2252.80;;;;;;4957023;28;19907;-80
2023/01/24 11:36:50;;;;;;;;;;;153.90;2252.80;;;;;;4956020;28;20285;-79
2023/01/24 11:39:32;;;;;;;;;;;153.90;2252.80;;;;;;4956147;28;19906;-78
2023/01/24 11:42:16;;;;;;;;;;;153.80;2252.80;;;;;;4956711;28;19962;-78
2023/01/24 11:44:44;;;;;;;;;;;153.90;2252.80;;;;;;4974445;28;19906;-80
2023/01/24 11:47:13;;;;;;;;;;;154.00;2252.80;;;;;;4972244;28;19906;-79
2023/01/24 11:49:58;;;;;;;;;;;153.90;2252.80;;;;;;4956085;28;19926;-79
2023/01/24 11:52:42;;;;;;;;;;;154.00;2252.80;;;;;;4969443;28;19917;-78
2023/01/24 11:55:07;;;;;;;;;;;153.90;2252.80;;;;;;4976185;28;20358;-73
2023/01/24 11:57:51;;;;;;;;;;;153.90;2252.80;;;;;;5034005;28;19905;-79
2023/01/24 12:00:19;;;;;;;;;;;153.90;2252.80;;;;;;5056116;28;20362;-78
2023/01/24 12:03:14;;;;;;;;;;;153.90;2252.80;;;;;;5056901;28;20049;-79
2023/01/24 12:05:39;;;;;;;;;;;153.90;2252.80;;;;;;4997070;28;19905;-78
2023/01/24 12:08:23;;;;;;;;;;;154.00;2252.80;;;;;;5001401;28;19912;-79
2023/01/24 12:11:08;;;;;;;;;;;154.00;2252.80;;;;;;5005521;28;19993;-79
2023/01/24 12:13:37;;;;;;;;;;;154.10;2252.80;;;;;;5001022;28;20430;-78
2023/01/24 12:16:07;;;;;;;;;;;154.00;2252.80;;;;;;4984737;28;19913;-79
2023/01/24 12:18:47;;;;;;;;;;;154.00;2252.80;;;;;;5004710;28;19941;-79
2023/01/24 12:21:13;;;;;;;;;;;154.00;2252.80;;;;;;5003751;28;20284;-79
2023/01/24 12:23:38;;;;;;;;;;;154.00;2252.80;;;;;;4985309;28;19917;-78
2023/01/24 12:26:13;;;;;;;;;;;154.10;2252.80;;;;;;4980056;28;20368;-79
2023/01/24 12:28:43;;;;;;;;;;;154.00;2252.80;;;;;;4983390;28;19910;-79
2023/01/24 12:31:11;;;;;;;;;;;154.00;2252.80;;;;;;4986693;28;20367;-78
2023/01/24 12:33:42;;;;;;;;;;;153.90;2252.80;;;;;;4981691;28;19906;-78
2023/01/24 12:36:10;;;;;;;;;;;153.90;2252.80;;;;;;4981523;28;19909;-78
2023/01/24 12:38:41;;;;;;;;;;;153.90;2252.80;;;;;;4984534;28;19905;-78
2023/01/24 12:41:30;;;;;;;;;;;154.00;2252.80;;;;;;4986632;28;19905;-78
2023/01/24 12:43:59;;;;;;;;;;;154.00;2252.80;;;;;;5054265;28;19912;-78
2023/01/24 12:46:30;;;;;;;;;;;154.10;2252.80;;;;;;5037573;28;20002;-78
2023/01/24 12:49:01;;;;;;;;;;;154.10;2252.80;;;;;;5037790;28;19908;-78
2023/01/24 12:51:29;;;;;;;;;;;154.00;2252.80;;;;;;5037842;28;20051;-78
2023/01/24 12:53:55;;;;;;;;;;;154.00;2252.80;;;;;;5036641;28;19913;-78
2023/01/24 12:56:22;;;;;;;;;;;154.00;2252.80;;;;;;5055616;28;19958;-77
2023/01/24 12:58:49;;;;;;;;;;;153.80;2252.80;;;;;;5037457;28;19944;-78
2023/01/24 13:01:24;;;;;;;;;;;153.80;2252.80;;;;;;5038182;28;19915;-78
2023/01/24 13:04:01;;;;;;;;;;;153.80;2252.80;;;;;;5037479;28;19911;-78
2023/01/24 13:06:42;;;;;;;;;;;153.70;2252.80;;;;;;5036890;28;20442;-78
2023/01/24 13:09:17;;;;;;;;;;;153.80;2252.80;;;;;;5034155;28;19913;-78
2023/01/24 13:11:47;;;;;;;;;;;153.80;2252.80;;;;;;5054236;28;19905;-78
2023/01/24 13:14:16;;;;;;;;;;;153.80;2252.80;;;;;;5037901;28;19908;-78
2023/01/24 13:17:00;;;;;;;;;;;153.80;2252.80;;;;;;5037251;28;19967;-78
2023/01/24 13:19:26;;;;;;;;;;;153.80;2252.80;;;;;;5035145;28;19909;-78
2023/01/24 13:22:10;;;;;;;;;;;153.80;2252.80;;;;;;5037121;28;20003;-78
2023/01/24 13:25:14;;;;;;;;;;;153.90;2252.80;;;;;;5055040;28;19905;-78
2023/01/24 13:27:45;;;;;;;;;;;153.80;2252.80;;;;;;4993989;28;20045;-79
2023/01/24 13:30:10;;;;;;;;;;;153.90;2252.80;;;;;;4977403;28;20057;-78
2023/01/24 13:32:38;;;;;;;;;;;153.80;2252.80;;;;;;4993892;28;19948;-78
2023/01/24 13:35:14;;;;;;;;;;;153.80;2252.80;;;;;;4977687;28;20304;-79
2023/01/24 13:37:40;;;;;;;;;;;153.90;2252.80;;;;;;4993673;28;19906;-79
2023/01/24 13:40:18;;;;;;;;;;;154.00;2252.80;;;;;;4994016;28;19913;-79
2023/01/24 13:42:43;;;;;;;;;;;154.00;2252.80;;;;;;4993390;28;19921;-79
2023/01/24 13:45:36;;;;;;;;;;;154.20;2252.80;;;;;;4993731;28;19905;-79
2023/01/24 13:48:07;;;;;;;;;;;154.10;2252.80;;;;;;4979841;28;19912;-79
2023/01/24 13:50:33;;;;;;;;;;;154.10;2252.80;;;;;;4984493;28;19924;-80
2023/01/24 13:52:59;;;;;;;;;;;154.10;2252.80;;;;;;4993779;28;19909;-84
2023/01/24 13:55:25;;;;;;;;;;;154.10;2252.80;;;;;;4976824;28;20339;-80
2023/01/24 13:58:12;;;;;;;;;;;154.20;2252.80;;;;;;5009258;28;19916;-80
2023/01/24 14:00:46;;;;;;;;;;;154.10;2252.80;;;;;;5036834;28;19908;-81
2023/01/24 14:03:20;;;;;;;;;;;154.10;2252.80;;;;;;5054836;28;19912;-79
2023/01/24 14:05:48;;;;;;;;;;;154.00;2252.80;;;;;;5035904;28;19904;-77
2023/01/24 14:08:14;;;;;;;;;;;154.10;2252.80;;;;;;5054308;28;19939;-78
2023/01/24 14:10:43;;;;;;;;;;;154.10;2252.80;;;;;;5036152;28;20009;-78
2023/01/24 14:13:27;;;;;;;;;;;154.10;2252.80;;;;;;5029923;28;19904;-77
2023/01/24 14:15:53;;;;;;;;;;;154.10;2252.80;;;;;;5053970;28;19919;-77
2023/01/24 14:18:37;;;;;;;;;;;154.10;2252.80;;;;;;5035724;28;19995;-77
2023/01/24 14:21:03;;;;;;;;;;;154.10;2252.80;;;;;;5047662;28;19909;-77
2023/01/24 14:23:30;;;;;;;;;;;154.00;2252.80;;;;;;5053635;28;19915;-77
2023/01/24 14:25:57;;;;;;;;;;;154.00;2252.80;;;;;;5035871;28;20031;-76
2023/01/24 14:28:32;;;;;;;;;;;154.00;2252.80;;;;;;5027227;28;19906;-77